createdAt,value
2023-01-07T00:01:33.471Z,98620.75
2023-01-07T00:04:01.955Z,98576.16
2023-01-07T00:06:31.614Z,98610.88
2023-01-07T00:08:58.738Z,98496.59
2023-01-07T00:11:35.106Z,98621.72
2023-01-07T00:14:03.562Z,98628.81
2023-01-07T00:16:32.299Z,98612.94
2023-01-07T00:19:00.841Z,98362.28
2023-01-07T00:21:28.714Z,98624.28
2023-01-07T00:29:26.826Z,98553.28
2023-01-07T00:34:46.025Z,98616.91
2023-01-07T00:37:12.701Z,98602.28
2023-01-07T00:39:41.290Z,98612.59
2023-01-07T00:42:17.146Z,98604.06
2023-01-07T00:44:43.913Z,98607.63
2023-01-07T00:47:10.577Z,98606.66
2023-01-07T00:49:37.456Z,98581.72
2023-01-07T00:52:04.322Z,98605.69
2023-01-07T00:54:31.169Z,98600.06
2023-01-07T00:56:58.761Z,98593.75
2023-01-07T00:59:25.761Z,98588.44
2023-01-07T01:01:52.487Z,98568.25
2023-01-07T01:04:19.320Z,98591.63
2023-01-07T01:06:46.085Z,98599.38
2023-01-07T01:09:12.790Z,98587.53
2023-01-07T01:11:40.044Z,98588.50
2023-01-07T01:14:06.756Z,98592.63
2023-01-07T01:16:33.388Z,98593.28
2023-01-07T01:19:00.187Z,98600.81
2023-01-07T01:21:27.359Z,98593.16
2023-01-07T01:23:54.012Z,98583.59
2023-01-07T01:26:21.517Z,98573.06
2023-01-07T01:28:48.231Z,98569.63
2023-01-07T01:31:20.032Z,98586.56
2023-01-07T01:33:54.134Z,98603.03
2023-01-07T01:36:21.238Z,98597.59
2023-01-07T01:38:48.021Z,98591.13
2023-01-07T01:41:15.228Z,98570.28
2023-01-07T01:43:44.132Z,98579.50
2023-01-07T01:46:15.965Z,98582.28
2023-01-07T01:48:52.017Z,98584.25
2023-01-07T01:51:22.143Z,98569.63
2023-01-07T01:53:49.027Z,98575.84
2023-01-07T01:56:25.823Z,98569.75
2023-01-07T01:58:58.969Z,98576.78
2023-01-07T02:01:26.847Z,98528.28
2023-01-07T02:03:54.914Z,98547.00
2023-01-07T02:06:25.412Z,98532.56
2023-01-07T02:08:53.443Z,98570.25
2023-01-07T02:11:30.236Z,98567.34
2023-01-07T02:14:02.639Z,98564.69
2023-01-07T02:17:04.472Z,98577.22
2023-01-07T02:20:01.984Z,98570.00
2023-01-07T02:22:49.807Z,98562.69
2023-01-07T02:25:31.456Z,98575.91
2023-01-07T02:28:29.975Z,98564.56
2023-01-07T02:31:34.099Z,98569.91
2023-01-07T02:34:13.264Z,98575.66
2023-01-07T02:36:46.731Z,98571.22
2023-01-07T02:39:41.586Z,98571.84
2023-01-07T02:42:17.727Z,98573.72
2023-01-07T02:45:02.302Z,98570.28
2023-01-07T02:47:31.878Z,98567.16
2023-01-07T02:50:00.431Z,98510.38
2023-01-07T02:52:30.131Z,98557.72
2023-01-07T02:55:02.749Z,98556.28
2023-01-07T02:57:51.591Z,98560.88
2023-01-07T03:00:41.327Z,98557.84
2023-01-07T03:03:26.892Z,98555.84
2023-01-07T03:06:46.900Z,98561.84
2023-01-07T03:09:31.958Z,98558.06
2023-01-07T03:12:19.808Z,98555.97
2023-01-07T03:15:08.515Z,98542.16
2023-01-07T03:17:42.503Z,98551.78
2023-01-07T03:20:11.640Z,98545.75
2023-01-07T03:22:41.359Z,98545.47
2023-01-07T03:25:09.429Z,98543.50
2023-01-07T03:27:36.890Z,98544.47
2023-01-07T03:30:09.325Z,98550.53
2023-01-07T03:32:42.775Z,98550.06
2023-01-07T03:35:10.233Z,98521.03
2023-01-07T03:37:38.403Z,98544.13
2023-01-07T03:40:07.818Z,98538.38
2023-01-07T03:42:34.678Z,98541.22
2023-01-07T03:45:01.506Z,98542.88
2023-01-07T03:47:31.024Z,98524.13
2023-01-07T03:49:57.794Z,98541.72
2023-01-07T03:52:24.507Z,98539.31
2023-01-07T03:54:51.814Z,98533.84
2023-01-07T03:57:18.701Z,98506.69
2023-01-07T03:59:45.582Z,98512.44
2023-01-07T04:02:12.766Z,98528.34
2023-01-07T04:04:39.941Z,98529.59
2023-01-07T04:07:07.069Z,98527.44
2023-01-07T04:09:33.973Z,98518.16
2023-01-07T04:12:00.613Z,98503.38
2023-01-07T04:14:27.404Z,98511.88
2023-01-07T04:16:54.149Z,98518.69
2023-01-07T04:19:21.987Z,98517.50
2023-01-07T04:21:48.783Z,98477.91
2023-01-07T04:24:15.744Z,98508.69
2023-01-07T04:26:42.824Z,98504.41
2023-01-07T04:29:11.373Z,98486.56
2023-01-07T04:31:38.613Z,98479.31
2023-01-07T04:34:05.564Z,98503.03
2023-01-07T04:36:32.427Z,98492.03
2023-01-07T04:38:59.318Z,98487.69
2023-01-07T04:41:26.161Z,98491.06
2023-01-07T04:43:53.504Z,98498.13
2023-01-07T04:46:20.195Z,98488.22
2023-01-07T04:48:47.829Z,98485.59
2023-01-07T04:51:14.758Z,98491.69
2023-01-07T04:53:41.878Z,98437.16
2023-01-07T04:56:08.843Z,98471.78
2023-01-07T04:58:35.691Z,98483.78
2023-01-07T05:01:04.010Z,98476.31
2023-01-07T05:03:34.134Z,98476.78
2023-01-07T05:06:01.289Z,98469.13
2023-01-07T05:08:28.277Z,98486.28
2023-01-07T05:10:55.734Z,98455.25
2023-01-07T05:13:23.900Z,98462.50
2023-01-07T05:15:51.479Z,98463.34
2023-01-07T05:18:19.775Z,98449.13
2023-01-07T05:20:47.190Z,98457.19
2023-01-07T05:23:14.201Z,98450.97
2023-01-07T05:25:42.355Z,98449.94
2023-01-07T05:28:09.763Z,98425.53
2023-01-07T05:30:38.223Z,98417.84
2023-01-07T05:33:06.455Z,98442.88
2023-01-07T05:35:35.070Z,98397.66
2023-01-07T05:38:02.308Z,98437.59
2023-01-07T05:40:29.431Z,98433.94
2023-01-07T05:42:56.126Z,98430.84
2023-01-07T05:45:22.788Z,98425.31
2023-01-07T05:47:49.495Z,98391.88
2023-01-07T05:50:16.305Z,98437.50
2023-01-07T05:52:43.080Z,98434.22
2023-01-07T05:55:12.064Z,98431.84
2023-01-07T05:57:39.379Z,98441.16
2023-01-07T06:00:06.786Z,98438.47
2023-01-07T06:02:38.575Z,98441.88
2023-01-07T06:05:05.737Z,98438.41
2023-01-07T06:07:32.485Z,98436.09
2023-01-07T06:09:59.919Z,98445.31
2023-01-07T06:12:27.879Z,98391.25
2023-01-07T06:14:54.644Z,98378.06
2023-01-07T06:17:21.233Z,98380.78
2023-01-07T06:19:47.962Z,98427.00
2023-01-07T06:22:15.205Z,98433.31
2023-01-07T06:24:41.906Z,98439.47
2023-01-07T06:27:10.264Z,98417.31
2023-01-07T06:29:37.104Z,98437.50
2023-01-07T06:32:04.030Z,98435.50
2023-01-07T06:34:30.687Z,98430.28
2023-01-07T06:36:57.383Z,98431.78
2023-01-07T06:39:24.145Z,98429.06
2023-01-07T06:41:50.738Z,98425.72
2023-01-07T06:44:17.557Z,98420.06
2023-01-07T06:46:44.239Z,98437.97
2023-01-07T06:49:11.545Z,98388.97
2023-01-07T06:51:38.374Z,98429.75
2023-01-07T06:54:05.085Z,98420.13
2023-01-07T06:56:32.349Z,98417.84
2023-01-07T06:58:59.097Z,98424.56
2023-01-07T07:01:25.936Z,98420.13
2023-01-07T07:03:52.839Z,98422.56
2023-01-07T07:06:19.523Z,98415.03
2023-01-07T07:08:46.252Z,98388.13
2023-01-07T07:11:12.864Z,98409.81
2023-01-07T07:13:39.957Z,98419.97
2023-01-07T07:16:07.134Z,98422.25
2023-01-07T07:18:33.948Z,98411.88
2023-01-07T07:21:00.741Z,98414.81
2023-01-07T07:23:27.389Z,98414.19
2023-01-07T07:25:53.998Z,98411.81
2023-01-07T07:28:20.789Z,98407.03
2023-01-07T07:30:48.401Z,98409.91
2023-01-07T07:33:16.011Z,98413.28
2023-01-07T07:35:42.685Z,98416.28
2023-01-07T07:38:09.439Z,98411.81
2023-01-07T07:40:36.449Z,98407.00
2023-01-07T07:43:10.781Z,98406.81
2023-01-07T07:45:40.482Z,98407.69
2023-01-07T07:48:12.321Z,98398.94
2023-01-07T07:50:39.257Z,98404.34
2023-01-07T07:53:05.984Z,98396.53
2023-01-07T07:55:32.749Z,98400.22
2023-01-07T07:57:59.309Z,98384.19
2023-01-07T08:00:26.251Z,98393.91
2023-01-07T08:02:52.938Z,98382.66
2023-01-07T08:05:19.673Z,98392.31
2023-01-07T08:07:46.352Z,98390.69
2023-01-07T08:10:13.180Z,98395.19
2023-01-07T08:12:39.837Z,98401.84
2023-01-07T08:15:08.043Z,98391.03
2023-01-07T08:17:35.245Z,98390.63
2023-01-07T08:20:02.808Z,98391.22
2023-01-07T08:22:29.399Z,98397.38
2023-01-07T08:24:56.246Z,98386.13
2023-01-07T08:27:22.820Z,98388.31
2023-01-07T08:29:49.515Z,98391.97
2023-01-07T08:32:16.227Z,98387.56
2023-01-07T08:34:43.005Z,98390.34
2023-01-07T08:37:09.640Z,98387.44
2023-01-07T08:39:36.458Z,98387.72
2023-01-07T08:42:03.477Z,98366.41
2023-01-07T08:44:30.301Z,98359.25
2023-01-07T08:46:56.991Z,98382.16
2023-01-07T08:49:23.643Z,98380.16
2023-01-07T08:51:50.232Z,98371.09
2023-01-07T08:54:17.131Z,98375.44
2023-01-07T08:56:43.723Z,98369.94
2023-01-07T08:59:10.433Z,98375.53
2023-01-07T09:01:37.328Z,98369.22
2023-01-07T09:04:04.262Z,98368.06
2023-01-07T09:06:30.844Z,98373.28
2023-01-07T09:08:57.590Z,98371.16
2023-01-07T09:11:24.256Z,98354.47
2023-01-07T09:13:50.950Z,98356.38
2023-01-07T09:16:17.753Z,98361.38
2023-01-07T09:18:44.564Z,98363.25
2023-01-07T09:21:11.180Z,98363.97
2023-01-07T09:23:37.896Z,98368.34
2023-01-07T09:26:04.536Z,98363.75
2023-01-07T09:28:31.339Z,98368.28
2023-01-07T09:30:58.219Z,98366.53
2023-01-07T09:33:24.890Z,98364.13
2023-01-07T09:35:51.499Z,98366.59
2023-01-07T09:38:18.254Z,98365.13
2023-01-07T09:40:45.443Z,98351.72
2023-01-07T09:43:14.877Z,98367.22
2023-01-07T09:45:48.955Z,98367.94
2023-01-07T09:48:41.195Z,98363.53
2023-01-07T09:51:23.829Z,98352.69
2023-01-07T09:53:52.587Z,98354.03
2023-01-07T09:56:27.798Z,98357.66
2023-01-07T09:58:56.089Z,98348.81
2023-01-07T10:01:50.887Z,98347.13
2023-01-07T10:04:54.937Z,98345.41
2023-01-07T10:07:33.754Z,98337.69
2023-01-07T10:10:08.303Z,98335.09
2023-01-07T10:12:53.111Z,98324.88
2023-01-07T10:15:59.235Z,98309.16
2023-01-07T10:18:50.492Z,98276.34
2023-01-07T10:21:25.467Z,98326.91
2023-01-07T10:24:22.065Z,98320.69
2023-01-07T10:26:52.948Z,98287.25
2023-01-07T10:29:30.947Z,98303.56
2023-01-07T10:32:04.104Z,98310.47
2023-01-07T10:34:38.380Z,98306.34
2023-01-07T10:37:33.236Z,98303.25
2023-01-07T10:40:12.366Z,98298.44
2023-01-07T10:42:47.171Z,98277.63
2023-01-07T10:45:38.912Z,98293.97
2023-01-07T10:48:27.767Z,98289.41
2023-01-07T10:51:45.473Z,98284.97
2023-01-07T10:54:17.835Z,98284.44
2023-01-07T10:57:02.939Z,98274.25
2023-01-07T10:59:30.391Z,98272.13
2023-01-07T11:01:59.280Z,98269.63
2023-01-07T11:04:26.851Z,98247.06
2023-01-07T11:06:59.179Z,98253.63
2023-01-07T11:09:31.025Z,98259.66
2023-01-07T11:12:36.474Z,98218.56
2023-01-07T11:15:08.713Z,98241.91
2023-01-07T11:17:40.444Z,98244.69
2023-01-07T11:20:07.982Z,98241.31
2023-01-07T11:22:38.279Z,98237.22
2023-01-07T11:25:41.773Z,98228.41
2023-01-07T11:28:18.331Z,98229.63
2023-01-07T11:30:55.116Z,98221.03
2023-01-07T11:34:02.419Z,98221.03
2023-01-07T11:36:15.508Z,98208.09
2023-01-07T11:38:42.574Z,98207.00
2023-01-07T11:41:26.140Z,98209.13
2023-01-07T11:43:54.597Z,98199.44
2023-01-07T11:46:25.895Z,98202.78
2023-01-07T11:48:55.717Z,98196.25
2023-01-07T11:51:24.043Z,98198.97
2023-01-07T11:53:50.697Z,98188.88
2023-01-07T11:56:20.083Z,98188.91
2023-01-07T11:58:52.111Z,98181.09
2023-01-07T12:01:21.519Z,98177.22
2023-01-07T12:03:54.379Z,98173.50
2023-01-07T12:06:26.472Z,98156.97
2023-01-07T12:09:04.473Z,98177.63
2023-01-07T12:11:38.007Z,98137.50
2023-01-07T12:14:18.607Z,98162.88
2023-01-07T12:16:47.251Z,98163.53
2023-01-07T12:19:16.909Z,98153.66
2023-01-07T12:22:04.789Z,98159.38
2023-01-07T12:24:58.609Z,98154.66
2023-01-07T12:27:47.461Z,98150.69
2023-01-07T12:30:37.352Z,98133.97
2023-01-07T12:33:10.186Z,98131.72
2023-01-07T12:35:41.601Z,98091.06
2023-01-07T12:38:14.479Z,98076.03
2023-01-07T12:40:58.338Z,98108.47
2023-01-07T12:43:28.401Z,98100.81
2023-01-07T12:45:59.276Z,98074.59
2023-01-07T12:48:40.721Z,98044.91
2023-01-07T12:51:36.554Z,98082.97
2023-01-07T12:54:21.586Z,98075.50
2023-01-07T12:56:55.409Z,98069.03
2023-01-07T12:59:45.660Z,98064.25
2023-01-07T13:02:19.216Z,98067.16
2023-01-07T13:05:04.641Z,98057.63
2023-01-07T13:07:53.091Z,98050.03
2023-01-07T13:10:26.059Z,98051.28
2023-01-07T13:13:07.619Z,98042.31
2023-01-07T13:15:38.616Z,98049.41
2023-01-07T13:18:11.214Z,98036.50
2023-01-07T13:20:43.935Z,98037.25
2023-01-07T13:23:23.910Z,98039.59
2023-01-07T13:26:04.650Z,98030.16
2023-01-07T13:28:46.342Z,98026.16
2023-01-07T13:31:19.081Z,98021.25
2023-01-07T13:33:57.975Z,98020.38
2023-01-07T13:36:45.723Z,98021.09
2023-01-07T13:39:54.034Z,98018.72
2023-01-07T13:42:46.645Z,98016.91
2023-01-07T13:45:32.199Z,98017.94
2023-01-07T13:48:02.102Z,98002.63
2023-01-07T13:50:45.208Z,98019.09
2023-01-07T13:53:15.103Z,98017.88
2023-01-07T13:55:46.591Z,98021.13
2023-01-07T13:58:31.685Z,98008.34
2023-01-07T14:01:03.134Z,98014.63
2023-01-07T14:03:43.629Z,98008.91
2023-01-07T14:06:19.579Z,98009.34
2023-01-07T14:08:51.035Z,98013.97
2023-01-07T14:11:37.569Z,98000.75
2023-01-07T14:14:22.931Z,97994.66
2023-01-07T14:17:13.465Z,97993.56
2023-01-07T14:20:12.399Z,97994.84
2023-01-07T14:23:03.552Z,97996.03
2023-01-07T14:25:47.025Z,98002.66
2023-01-07T14:28:36.876Z,97996.81
2023-01-07T14:31:04.625Z,97977.41
2023-01-07T14:33:34.118Z,98008.75
2023-01-07T14:36:05.529Z,97984.41
2023-01-07T14:38:32.292Z,97997.84
2023-01-07T14:41:09.725Z,97989.88
2023-01-07T14:43:42.639Z,97984.63
2023-01-07T14:46:30.355Z,97971.28
2023-01-07T14:48:59.940Z,97972.38
2023-01-07T14:52:20.557Z,97971.06
2023-01-07T14:55:02.475Z,97964.72
2023-01-07T14:58:13.996Z,97970.69
2023-01-07T15:00:55.596Z,97966.44
2023-01-07T15:03:40.550Z,97960.94
2023-01-07T15:06:22.556Z,97963.66
2023-01-07T15:09:01.005Z,97960.47
2023-01-07T15:11:28.560Z,97956.28
2023-01-07T15:14:04.282Z,97948.34
2023-01-07T15:16:34.285Z,97945.97
2023-01-07T15:19:01.063Z,97941.25
2023-01-07T15:21:37.178Z,97936.66
2023-01-07T15:24:25.407Z,97927.75
2023-01-07T15:27:19.629Z,97927.94
2023-01-07T15:30:01.385Z,97934.03
2023-01-07T15:32:53.584Z,97939.34
2023-01-07T15:35:25.358Z,97934.47
2023-01-07T15:37:52.210Z,97929.09
2023-01-07T15:40:22.761Z,97929.84
2023-01-07T15:42:53.042Z,97936.56
2023-01-07T15:45:22.923Z,97909.66
2023-01-07T15:47:50.565Z,97921.91
2023-01-07T15:50:31.729Z,97918.53
2023-01-07T15:53:17.223Z,97886.88
2023-01-07T15:55:58.453Z,97872.91
2023-01-07T15:58:38.937Z,97921.00
2023-01-07T16:01:08.024Z,97920.56
2023-01-07T16:03:38.923Z,97915.47
2023-01-07T16:06:31.492Z,97905.38
2023-01-07T16:08:59.027Z,97909.63
2023-01-07T16:11:29.256Z,97903.22
2023-01-07T16:14:01.844Z,97908.47
2023-01-07T16:16:30.861Z,97896.31
2023-01-07T16:19:02.704Z,97894.81
2023-01-07T16:21:35.435Z,97890.28
2023-01-07T16:24:02.688Z,97878.53
2023-01-07T16:26:43.497Z,97897.00
2023-01-07T16:29:18.645Z,97895.28
2023-01-07T16:31:46.407Z,97890.41
2023-01-07T16:34:25.311Z,97894.44
2023-01-07T16:36:57.340Z,97888.97
2023-01-07T16:39:27.999Z,97893.59
2023-01-07T16:41:55.239Z,97850.28
2023-01-07T16:44:58.245Z,97838.31
2023-01-07T16:47:27.560Z,97907.34
2023-01-07T16:49:59.203Z,97901.66
2023-01-07T16:52:31.547Z,97899.16
2023-01-07T16:54:58.285Z,97897.16
2023-01-07T16:57:41.252Z,97894.25
2023-01-07T17:00:19.286Z,97885.91
2023-01-07T17:02:58.196Z,97848.50
2023-01-07T17:05:31.064Z,97868.03
2023-01-07T17:08:19.173Z,97850.81
2023-01-07T17:10:57.555Z,97868.03
2023-01-07T17:13:24.606Z,97874.91
2023-01-07T17:15:51.249Z,97869.19
2023-01-07T17:18:17.974Z,97867.91
2023-01-07T17:20:49.995Z,97871.88
2023-01-07T17:23:41.323Z,97862.72
2023-01-07T17:26:10.786Z,97866.91
2023-01-07T17:28:46.671Z,97850.72
2023-01-07T17:31:13.795Z,97863.38
2023-01-07T17:33:42.342Z,97864.47
2023-01-07T17:36:26.180Z,97854.69
2023-01-07T17:38:53.242Z,97852.44
2023-01-07T17:41:21.845Z,97856.50
2023-01-07T17:43:48.520Z,97847.28
2023-01-07T17:46:15.195Z,97826.44
2023-01-07T17:48:41.979Z,97815.56
2023-01-07T17:54:03.166Z,97853.03
2023-01-07T17:56:30.066Z,97829.41
2023-01-07T17:58:56.701Z,97838.19
2023-01-07T18:01:24.052Z,97839.69
2023-01-07T18:03:52.458Z,97832.34
2023-01-07T18:06:21.983Z,97831.81
2023-01-07T18:08:50.192Z,97808.47
2023-01-07T18:11:20.722Z,97819.38
2023-01-07T18:13:47.437Z,97814.78
2023-01-07T18:16:14.952Z,97810.28
2023-01-07T18:18:41.778Z,97821.53
2023-01-07T18:21:11.447Z,97824.00
2023-01-07T18:23:38.335Z,97819.94
2023-01-07T18:26:06.235Z,97820.03
2023-01-07T18:28:32.905Z,97825.28
2023-01-07T18:30:59.541Z,97826.09
2023-01-07T18:33:26.397Z,97818.69
2023-01-07T18:35:52.977Z,97829.84
2023-01-07T18:38:19.652Z,97822.41
2023-01-07T18:40:46.476Z,97822.66
2023-01-07T18:43:18.107Z,97802.19
2023-01-07T18:45:46.334Z,97811.59
2023-01-07T18:48:14.494Z,97822.97
2023-01-07T18:50:46.997Z,97814.44
2023-01-07T18:53:15.774Z,97811.88
2023-01-07T18:55:46.338Z,97805.44
2023-01-07T18:58:15.370Z,97802.91
2023-01-07T19:00:42.438Z,97796.19
2023-01-07T19:03:10.628Z,97812.38
2023-01-07T19:05:39.342Z,97805.25
2023-01-07T19:08:06.167Z,97805.41
2023-01-07T19:10:32.875Z,97803.66
2023-01-07T19:12:59.506Z,97787.41
2023-01-07T19:15:26.144Z,97795.50
2023-01-07T19:17:52.893Z,97792.81
2023-01-07T19:20:19.461Z,97777.44
2023-01-07T19:22:46.301Z,97779.31
2023-01-07T19:25:13.825Z,97781.28
2023-01-07T19:27:40.617Z,97782.25
2023-01-07T19:30:09.427Z,97777.16
2023-01-07T19:32:36.081Z,97753.50
2023-01-07T19:35:02.713Z,97747.88
2023-01-07T19:37:29.478Z,97749.81
2023-01-07T19:39:56.072Z,97733.28
2023-01-07T19:42:23.027Z,97752.19
2023-01-07T19:44:49.849Z,97737.06
2023-01-07T19:47:16.484Z,97732.72
2023-01-07T19:49:43.071Z,97742.78
2023-01-07T19:52:09.746Z,97728.94
2023-01-07T19:54:36.328Z,97717.09
2023-01-07T19:57:03.064Z,97727.69
2023-01-07T19:59:29.735Z,97725.72
2023-01-07T20:01:56.587Z,97718.13
2023-01-07T20:04:23.312Z,97738.59
2023-01-07T20:06:50.112Z,97730.34
2023-01-07T20:09:17.135Z,97728.19
2023-01-07T20:11:44.554Z,97718.13
2023-01-07T20:14:12.927Z,97718.94
2023-01-07T20:16:40.777Z,97708.09
2023-01-07T20:19:09.934Z,97701.50
2023-01-07T20:21:36.851Z,97691.81
2023-01-07T20:24:03.682Z,97694.41
2023-01-07T20:26:32.151Z,97687.47
2023-01-07T20:29:00.057Z,97678.63
2023-01-07T20:31:28.696Z,97683.56
2023-01-07T20:33:55.491Z,97693.34
2023-01-07T20:36:25.777Z,97694.72
2023-01-07T20:38:52.533Z,97692.28
2023-01-07T20:41:24.589Z,97685.25
2023-01-07T20:43:56.228Z,97686.31
2023-01-07T20:46:25.224Z,97696.63
2023-01-07T20:48:52.357Z,97684.22
2023-01-07T20:51:19.402Z,97675.19
2023-01-07T20:53:46.734Z,97677.06
2023-01-07T20:56:16.383Z,97672.09
2023-01-07T20:58:44.718Z,97677.34
2023-01-07T21:01:13.614Z,97648.03
2023-01-07T21:03:41.286Z,97673.19
2023-01-07T21:06:11.607Z,97675.03
2023-01-07T21:08:38.917Z,97678.09
2023-01-07T21:11:14.594Z,97674.56
2023-01-07T21:13:41.475Z,97673.75
2023-01-07T21:16:08.652Z,97674.09
2023-01-07T21:18:35.471Z,97671.13
2023-01-07T21:21:12.055Z,97677.28
2023-01-07T21:24:04.326Z,97673.03
2023-01-07T21:26:31.024Z,97668.97
2023-01-07T21:28:57.640Z,97681.25
2023-01-07T21:31:25.879Z,97668.50
2023-01-07T21:33:57.155Z,97677.38
2023-01-07T21:36:25.930Z,97665.97
2023-01-07T21:38:58.007Z,97672.22
2023-01-07T21:41:25.559Z,97624.19
2023-01-07T21:43:52.373Z,97667.34
2023-01-07T21:46:19.259Z,97661.53
2023-01-07T21:48:47.161Z,97668.69
2023-01-07T21:51:23.366Z,97666.34
2023-01-07T21:53:50.813Z,97663.53
2023-01-07T21:56:20.603Z,97659.63
2023-01-07T21:58:47.743Z,97655.94
2023-01-07T22:01:15.578Z,97662.63
2023-01-07T22:03:48.098Z,97663.25
2023-01-07T22:06:35.101Z,97652.69
2023-01-07T22:09:07.846Z,97647.88
2023-01-07T22:11:36.181Z,97633.34
2023-01-07T22:14:02.828Z,97631.84
2023-01-07T22:16:32.270Z,97627.56
2023-01-07T22:18:59.121Z,97643.34
2023-01-07T22:21:26.051Z,97630.63
2023-01-07T22:23:53.224Z,97618.06
2023-01-07T22:26:20.663Z,97626.53
2023-01-07T22:28:53.999Z,97631.22
2023-01-07T22:31:24.174Z,97629.06
2023-01-07T22:33:52.802Z,97633.28
2023-01-07T22:36:36.524Z,97639.50
2023-01-07T22:39:09.356Z,97620.66
2023-01-07T22:41:36.715Z,97610.13
2023-01-07T22:44:08.869Z,97633.34
2023-01-07T22:46:39.073Z,97630.44
2023-01-07T22:49:06.802Z,97602.81
2023-01-07T22:51:41.723Z,97622.97
2023-01-07T22:54:08.922Z,97625.66
2023-01-07T22:56:35.951Z,97627.44
2023-01-07T22:59:03.186Z,97621.19
2023-01-07T23:01:30.474Z,97609.00
2023-01-07T23:03:57.661Z,97612.88
2023-01-07T23:06:24.556Z,97597.44
2023-01-07T23:08:51.203Z,97594.38
2023-01-07T23:11:17.854Z,97591.94
2023-01-07T23:13:44.678Z,97422.13
2023-01-07T23:16:11.472Z,97571.13
2023-01-07T23:18:38.141Z,97563.09
2023-01-07T23:21:05.097Z,97559.50
2023-01-07T23:23:32.273Z,97551.09
2023-01-07T23:25:59.907Z,97548.63
2023-01-07T23:28:27.001Z,97565.00
2023-01-07T23:30:53.583Z,97561.22
2023-01-07T23:33:21.425Z,97553.50
2023-01-07T23:35:48.541Z,97535.00
2023-01-07T23:38:15.306Z,97526.41
2023-01-07T23:40:42.468Z,97554.66
2023-01-07T23:43:09.297Z,97546.34
2023-01-07T23:45:36.188Z,97544.31
2023-01-07T23:48:03.095Z,97546.63
2023-01-07T23:50:30.793Z,97545.53
2023-01-07T23:52:58.639Z,97542.22
2023-01-07T23:55:25.238Z,97534.50
2023-01-07T23:57:53.253Z,97514.72
